sensor_id;sensor_type;location;lat;lon;timestamp;pressure;altitude;pressure_sealevel;temperature;humidity
74474;BME280;62922;-6.168;106.796;2023-06-01T00:06:16;101014.50;;;30.96;61.57
74474;BME280;62922;-6.168;106.796;2023-06-01T00:08:42;101016.13;;;30.97;61.49
74474;BME280;62922;-6.168;106.796;2023-06-01T00:11:08;101018.97;;;30.97;61.70
74474;BME280;62922;-6.168;106.796;2023-06-01T00:13:33;101018.97;;;30.97;61.43
74474;BME280;62922;-6.168;106.796;2023-06-01T00:15:59;101024.59;;;30.97;61.43
74474;BME280;62922;-6.168;106.796;2023-06-01T00:18:25;101026.91;;;30.95;61.33
74474;BME280;62922;-6.168;106.796;2023-06-01T00:20:53;101027.75;;;30.96;61.64
74474;BME280;62922;-6.168;106.796;2023-06-01T00:23:19;101022.09;;;30.96;61.31
74474;BME280;62922;-6.168;106.796;2023-06-01T00:25:45;101029.72;;;30.95;61.31
74474;BME280;62922;-6.168;106.796;2023-06-01T00:28:11;101036.19;;;30.96;61.40
74474;BME280;62922;-6.168;106.796;2023-06-01T00:30:37;101030.91;;;30.94;61.18
74474;BME280;62922;-6.168;106.796;2023-06-01T00:33:05;101041.34;;;30.94;61.32
74474;BME280;62922;-6.168;106.796;2023-06-01T00:35:31;101032.53;;;30.95;61.45
74474;BME280;62922;-6.168;106.796;2023-06-01T00:37:57;101035.38;;;30.95;61.04
74474;BME280;62922;-6.168;106.796;2023-06-01T00:40:25;101031.75;;;30.95;60.79
74474;BME280;62922;-6.168;106.796;2023-06-01T00:42:51;101041.50;;;30.97;61.44
74474;BME280;62922;-6.168;106.796;2023-06-01T00:45:17;101036.38;;;30.99;61.44
74474;BME280;62922;-6.168;106.796;2023-06-01T00:47:43;101046.50;;;31.00;61.18
74474;BME280;62922;-6.168;106.796;2023-06-01T00:50:12;101050.13;;;31.01;61.22
74474;BME280;62922;-6.168;106.796;2023-06-01T00:52:38;101048.47;;;31.00;61.34
74474;BME280;62922;-6.168;106.796;2023-06-01T00:55:04;101050.81;;;30.98;61.24
74474;BME280;62922;-6.168;106.796;2023-06-01T00:57:31;101051.63;;;30.98;60.85
74474;BME280;62922;-6.168;106.796;2023-06-01T01:00:03;101059.25;;;30.98;60.99
74474;BME280;62922;-6.168;106.796;2023-06-01T01:02:40;101054.47;;;30.98;60.76
74474;BME280;62922;-6.168;106.796;2023-06-01T01:05:07;101066.06;;;30.97;61.16
74474;BME280;62922;-6.168;106.796;2023-06-01T01:12:55;101068.56;;;30.98;61.02
74474;BME280;62922;-6.168;106.796;2023-06-01T01:15:25;101073.34;;;30.98;60.98
74474;BME280;62922;-6.168;106.796;2023-06-01T01:17:54;101070.53;;;30.98;61.02
74474;BME280;62922;-6.168;106.796;2023-06-01T01:20:31;101094.72;;;30.99;60.71
74474;BME280;62922;-6.168;106.796;2023-06-01T01:28:46;101085.97;;;31.00;61.14
74474;BME280;62922;-6.168;106.796;2023-06-01T01:31:13;101088.78;;;31.00;60.87
74474;BME280;62922;-6.168;106.796;2023-06-01T01:33:44;101084.78;;;31.01;61.26
74474;BME280;62922;-6.168;106.796;2023-06-01T01:36:11;101089.28;;;31.02;60.88
74474;BME280;62922;-6.168;106.796;2023-06-01T01:38:37;101089.28;;;31.02;60.92
74474;BME280;62922;-6.168;106.796;2023-06-01T01:41:03;101087.28;;;31.03;60.63
74474;BME280;62922;-6.168;106.796;2023-06-01T01:43:30;101090.94;;;31.03;61.03
74474;BME280;62922;-6.168;106.796;2023-06-01T01:45:59;101078.50;;;31.04;61.17
74474;BME280;62922;-6.168;106.796;2023-06-01T01:48:33;101079.31;;;31.05;61.33
74474;BME280;62922;-6.168;106.796;2023-06-01T01:51:03;101081.00;;;31.06;61.52
74474;BME280;62922;-6.168;106.796;2023-06-01T01:53:32;101083.81;;;31.06;61.37
74474;BME280;62922;-6.168;106.796;2023-06-01T01:56:00;101081.81;;;31.06;61.29
74474;BME280;62922;-6.168;106.796;2023-06-01T01:58:27;101085.47;;;31.07;61.29
74474;BME280;62922;-6.168;106.796;2023-06-01T02:00:53;101073.88;;;31.08;61.37
74474;BME280;62922;-6.168;106.796;2023-06-01T02:03:20;101073.88;;;31.08;61.39
74474;BME280;62922;-6.168;106.796;2023-06-01T02:05:46;101075.53;;;31.09;61.22
74474;BME280;62922;-6.168;106.796;2023-06-01T02:08:12;101072.72;;;31.09;61.73
74474;BME280;62922;-6.168;106.796;2023-06-01T02:10:38;101073.53;;;31.10;61.25
74474;BME280;62922;-6.168;106.796;2023-06-01T02:13:04;101080.00;;;31.10;61.78
74474;BME280;62922;-6.168;106.796;2023-06-01T02:15:30;101074.03;;;31.12;61.76
74474;BME280;62922;-6.168;106.796;2023-06-01T02:17:56;101066.41;;;31.12;61.54
74474;BME280;62922;-6.168;106.796;2023-06-01T02:20:22;101067.25;;;31.13;61.46
74474;BME280;62922;-6.168;106.796;2023-06-01T02:22:47;101068.91;;;31.14;61.58
74474;BME280;62922;-6.168;106.796;2023-06-01T02:25:13;101064.94;;;31.15;61.70
74474;BME280;62922;-6.168;106.796;2023-06-01T02:27:40;101064.94;;;31.15;61.28
74474;BME280;62922;-6.168;106.796;2023-06-01T02:30:06;101069.06;;;31.17;61.44
74474;BME280;62922;-6.168;106.796;2023-06-01T02:32:33;101055.81;;;31.18;61.35
74474;BME280;62922;-6.168;106.796;2023-06-01T02:35:00;101067.59;;;31.20;61.16
74474;BME280;62922;-6.168;106.796;2023-06-01T02:37:28;101057.97;;;31.21;61.22
74474;BME280;62922;-6.168;106.796;2023-06-01T02:39:54;101058.81;;;31.21;61.02
74474;BME280;62922;-6.168;106.796;2023-06-01T02:42:20;101055.66;;;31.23;61.29
74474;BME280;62922;-6.168;106.796;2023-06-01T02:44:46;101047.19;;;31.23;61.03
74474;BME280;62922;-6.168;106.796;2023-06-01T02:47:11;101047.69;;;31.25;61.26
74474;BME280;62922;-6.168;106.796;2023-06-01T02:49:37;101056.66;;;31.27;60.99
74474;BME280;62922;-6.168;106.796;2023-06-01T02:52:03;101047.84;;;31.28;60.64
74474;BME280;62922;-6.168;106.796;2023-06-01T02:54:29;101052.34;;;31.29;60.77
74474;BME280;62922;-6.168;106.796;2023-06-01T02:56:55;101040.75;;;31.31;61.19
74474;BME280;62922;-6.168;106.796;2023-06-01T02:59:21;101038.75;;;31.31;61.09
74474;BME280;62922;-6.168;106.796;2023-06-01T03:01:47;101036.44;;;31.33;60.71
74474;BME280;62922;-6.168;106.796;2023-06-01T03:04:13;101032.78;;;31.33;60.31
74474;BME280;62922;-6.168;106.796;2023-06-01T03:06:42;101030.47;;;31.35;60.36
74474;BME280;62922;-6.168;106.796;2023-06-01T03:09:08;101032.16;;;31.36;60.46
74474;BME280;62922;-6.168;106.796;2023-06-01T03:11:44;101031.81;;;31.37;60.61
74474;BME280;62922;-6.168;106.796;2023-06-01T03:14:10;101027.84;;;31.38;60.33
74474;BME280;62922;-6.168;106.796;2023-06-01T03:16:36;101030.31;;;31.40;60.39
74474;BME280;62922;-6.168;106.796;2023-06-01T03:19:02;101017.88;;;31.41;60.37
74474;BME280;62922;-6.168;106.796;2023-06-01T03:21:28;101015.56;;;31.43;60.72
74474;BME280;62922;-6.168;106.796;2023-06-01T03:23:56;101018.88;;;31.45;60.17
74474;BME280;62922;-6.168;106.796;2023-06-01T03:26:25;101014.91;;;31.46;60.61
74474;BME280;62922;-6.168;106.796;2023-06-01T03:28:52;101011.75;;;31.47;60.18
74474;BME280;62922;-6.168;106.796;2023-06-01T03:31:18;100996.47;;;31.48;60.52
74474;BME280;62922;-6.168;106.796;2023-06-01T03:33:44;100996.97;;;31.50;60.44
74474;BME280;62922;-6.168;106.796;2023-06-01T03:36:10;100995.00;;;31.51;60.45
74474;BME280;62922;-6.168;106.796;2023-06-01T03:38:36;100994.31;;;31.54;60.11
74474;BME280;62922;-6.168;106.796;2023-06-01T03:41:02;100983.53;;;31.56;59.79
74474;BME280;62922;-6.168;106.796;2023-06-01T03:43:27;100991.00;;;31.60;60.05
74474;BME280;62922;-6.168;106.796;2023-06-01T03:45:53;100989.81;;;31.61;60.08
74474;BME280;62922;-6.168;106.796;2023-06-01T03:48:19;100986.66;;;31.63;59.71
74474;BME280;62922;-6.168;106.796;2023-06-01T03:50:45;100981.53;;;31.65;59.73
74474;BME280;62922;-6.168;106.796;2023-06-01T03:53:11;100967.06;;;31.67;59.84
74474;BME280;62922;-6.168;106.796;2023-06-01T03:55:37;100956.28;;;31.69;59.28
74474;BME280;62922;-6.168;106.796;2023-06-01T03:58:03;100961.59;;;31.70;59.63
74474;BME280;62922;-6.168;106.796;2023-06-01T04:00:30;100967.72;;;31.72;59.65
74474;BME280;62922;-6.168;106.796;2023-06-01T04:02:57;100958.13;;;31.73;59.37
74474;BME280;62922;-6.168;106.796;2023-06-01T04:05:24;100955.44;;;31.77;59.23
74474;BME280;62922;-6.168;106.796;2023-06-01T04:07:51;100952.63;;;31.77;59.52
74474;BME280;62922;-6.168;106.796;2023-06-01T04:10:18;100954.28;;;31.78;58.89
74474;BME280;62922;-6.168;106.796;2023-06-01T04:12:45;100944.66;;;31.79;59.09
74474;BME280;62922;-6.168;106.796;2023-06-01T04:15:11;100945.50;;;31.79;59.47
74474;BME280;62922;-6.168;106.796;2023-06-01T04:17:38;100940.31;;;31.81;59.26
74474;BME280;62922;-6.168;106.796;2023-06-01T04:20:05;100948.47;;;31.83;59.44
74474;BME280;62922;-6.168;106.796;2023-06-01T04:22:32;100929.53;;;31.83;59.18
74474;BME280;62922;-6.168;106.796;2023-06-01T04:24:58;100932.03;;;31.85;59.47
74474;BME280;62922;-6.168;106.796;2023-06-01T04:27:24;100928.88;;;31.86;58.96
74474;BME280;62922;-6.168;106.796;2023-06-01T04:29:52;100922.88;;;31.88;59.63
74474;BME280;62922;-6.168;106.796;2023-06-01T04:32:18;100915.25;;;31.88;59.19
74474;BME280;62922;-6.168;106.796;2023-06-01T04:34:47;100927.06;;;31.90;59.41
74474;BME280;62922;-6.168;106.796;2023-06-01T04:37:17;100910.13;;;31.90;59.00
74474;BME280;62922;-6.168;106.796;2023-06-01T04:39:53;100915.44;;;31.92;59.59
74474;BME280;62922;-6.168;106.796;2023-06-01T04:42:19;100915.94;;;31.94;59.26
74474;BME280;62922;-6.168;106.796;2023-06-01T04:44:46;100914.75;;;31.95;59.65
74474;BME280;62922;-6.168;106.796;2023-06-01T04:47:15;100907.13;;;31.95;59.54
74474;BME280;62922;-6.168;106.796;2023-06-01T04:49:42;100908.75;;;31.96;59.54
74474;BME280;62922;-6.168;106.796;2023-06-01T04:52:08;100905.59;;;31.98;59.67
74474;BME280;62922;-6.168;106.796;2023-06-01T04:54:36;100897.63;;;32.00;59.85
74474;BME280;62922;-6.168;106.796;2023-06-01T04:57:02;100896.47;;;32.01;59.31
74474;BME280;62922;-6.168;106.796;2023-06-01T04:59:31;100881.19;;;32.02;59.51
74474;BME280;62922;-6.168;106.796;2023-06-01T05:01:57;100880.84;;;32.03;59.55
74474;BME280;62922;-6.168;106.796;2023-06-01T05:04:23;100874.03;;;32.04;59.65
74474;BME280;62922;-6.168;106.796;2023-06-01T05:06:49;100874.53;;;32.06;59.80
74474;BME280;62922;-6.168;106.796;2023-06-01T05:09:16;100869.38;;;32.08;59.36
74474;BME280;62922;-6.168;106.796;2023-06-01T05:11:43;100868.19;;;32.09;60.10
74474;BME280;62922;-6.168;106.796;2023-06-01T05:14:09;100865.03;;;32.11;59.58
74474;BME280;62922;-6.168;106.796;2023-06-01T05:16:35;100863.03;;;32.11;60.04
74474;BME280;62922;-6.168;106.796;2023-06-01T05:19:01;100857.03;;;32.13;59.97
74474;BME280;62922;-6.168;106.796;2023-06-01T05:21:27;100855.06;;;32.13;59.93
74474;BME280;62922;-6.168;106.796;2023-06-01T05:23:53;100855.53;;;32.15;59.78
74474;BME280;62922;-6.168;106.796;2023-06-01T05:26:19;100849.91;;;32.15;59.49
74474;BME280;62922;-6.168;106.796;2023-06-01T05:28:47;100847.56;;;32.17;59.66
74474;BME280;62922;-6.168;106.796;2023-06-01T05:31:13;100839.09;;;32.17;60.11
74474;BME280;62922;-6.168;106.796;2023-06-01T05:33:39;100835.09;;;32.18;59.73
74474;BME280;62922;-6.168;106.796;2023-06-01T05:36:05;100840.75;;;32.18;59.96
74474;BME280;62922;-6.168;106.796;2023-06-01T05:38:31;100840.06;;;32.21;59.58
74474;BME280;62922;-6.168;106.796;2023-06-01T05:40:57;100830.06;;;32.24;59.88
74474;BME280;62922;-6.168;106.796;2023-06-01T05:43:23;100823.28;;;32.25;59.45
74474;BME280;62922;-6.168;106.796;2023-06-01T05:45:49;100835.84;;;32.27;59.94
74474;BME280;62922;-6.168;106.796;2023-06-01T05:48:15;100822.56;;;32.28;59.88
74474;BME280;62922;-6.168;106.796;2023-06-01T05:50:41;100827.88;;;32.29;59.26
74474;BME280;62922;-6.168;106.796;2023-06-01T05:53:08;100819.06;;;32.31;59.37
74474;BME280;62922;-6.168;106.796;2023-06-01T05:55:34;100821.53;;;32.32;59.82
74474;BME280;62922;-6.168;106.796;2023-06-01T05:58:00;100814.72;;;32.33;59.25
74474;BME280;62922;-6.168;106.796;2023-06-01T06:00:26;100810.72;;;32.34;59.40
74474;BME280;62922;-6.168;106.796;2023-06-01T06:02:52;100814.03;;;32.36;59.22
74474;BME280;62922;-6.168;106.796;2023-06-01T06:05:18;100808.03;;;32.38;59.45
74474;BME280;62922;-6.168;106.796;2023-06-01T06:07:43;100812.53;;;32.39;59.43
74474;BME280;62922;-6.168;106.796;2023-06-01T06:10:10;100806.53;;;32.40;59.25
74474;BME280;62922;-6.168;106.796;2023-06-01T06:12:36;100807.38;;;32.41;59.71
74474;BME280;62922;-6.168;106.796;2023-06-01T06:15:02;100805.38;;;32.41;59.91
74474;BME280;62922;-6.168;106.796;2023-06-01T06:17:29;100796.59;;;32.43;59.46
74474;BME280;62922;-6.168;106.796;2023-06-01T06:19:55;100805.56;;;32.45;59.93
74474;BME280;62922;-6.168;106.796;2023-06-01T06:22:21;100802.38;;;32.46;59.29
74474;BME280;62922;-6.168;106.796;2023-06-01T06:24:47;100798.38;;;32.47;59.30
74474;BME280;62922;-6.168;106.796;2023-06-01T06:27:13;100792.72;;;32.47;59.21
74474;BME280;62922;-6.168;106.796;2023-06-01T06:29:38;100802.03;;;32.48;59.30
74474;BME280;62922;-6.168;106.796;2023-06-01T06:32:05;100800.84;;;32.49;59.42
74474;BME280;62922;-6.168;106.796;2023-06-01T06:34:31;100802.50;;;32.50;59.51
74474;BME280;62922;-6.168;106.796;2023-06-01T06:37:02;100789.22;;;32.50;59.34
74474;BME280;62922;-6.168;106.796;2023-06-01T06:39:27;100788.03;;;32.51;59.90
74474;BME280;62922;-6.168;106.796;2023-06-01T06:41:53;100782.75;;;32.50;59.86
74474;BME280;62922;-6.168;106.796;2023-06-01T06:44:19;100791.69;;;32.52;59.87
74474;BME280;62922;-6.168;106.796;2023-06-01T06:46:45;100784.88;;;32.53;59.14
74474;BME280;62922;-6.168;106.796;2023-06-01T06:49:11;100784.03;;;32.52;59.34
74474;BME280;62922;-6.168;106.796;2023-06-01T06:51:37;100781.19;;;32.52;59.45
74474;BME280;62922;-6.168;106.796;2023-06-01T06:54:03;100770.75;;;32.53;59.26
74474;BME280;62922;-6.168;106.796;2023-06-01T06:56:31;100771.56;;;32.53;59.58
74474;BME280;62922;-6.168;106.796;2023-06-01T06:58:56;100776.03;;;32.54;59.31
74474;BME280;62922;-6.168;106.796;2023-06-01T07:01:22;100779.69;;;32.55;59.04
74474;BME280;62922;-6.168;106.796;2023-06-01T07:03:51;100777.72;;;32.55;59.25
74474;BME280;62922;-6.168;106.796;2023-06-01T07:06:17;100770.06;;;32.56;59.23
74474;BME280;62922;-6.168;106.796;2023-06-01T07:08:43;100779.81;;;32.58;59.75
74474;BME280;62922;-6.168;106.796;2023-06-01T07:11:09;100771.84;;;32.61;59.74
74474;BME280;62922;-6.168;106.796;2023-06-01T07:13:35;100775.84;;;32.60;59.81
74474;BME280;62922;-6.168;106.796;2023-06-01T07:16:03;100762.53;;;32.60;59.88
74474;BME280;62922;-6.168;106.796;2023-06-01T07:18:30;100775.16;;;32.63;59.46
74474;BME280;62922;-6.168;106.796;2023-06-01T07:20:57;100762.22;;;32.62;59.36
74474;BME280;62922;-6.168;106.796;2023-06-01T07:23:22;100761.03;;;32.63;59.36
74474;BME280;62922;-6.168;106.796;2023-06-01T07:25:48;100765.47;;;32.64;59.37
74474;BME280;62922;-6.168;106.796;2023-06-01T07:28:15;100771.97;;;32.64;59.92
74474;BME280;62922;-6.168;106.796;2023-06-01T07:30:41;100764.69;;;32.63;59.99
74474;BME280;62922;-6.168;106.796;2023-06-01T07:33:07;100765.47;;;32.64;59.62
74474;BME280;62922;-6.168;106.796;2023-06-01T07:35:33;100757.00;;;32.64;60.07
74474;BME280;62922;-6.168;106.796;2023-06-01T07:38:00;100751.03;;;32.65;59.96
74474;BME280;62922;-6.168;106.796;2023-06-01T07:40:28;100753.03;;;32.65;59.70
74474;BME280;62922;-6.168;106.796;2023-06-01T07:42:55;100749.00;;;32.66;59.28
74474;BME280;62922;-6.168;106.796;2023-06-01T07:45:21;100749.00;;;32.66;59.72
74474;BME280;62922;-6.168;106.796;2023-06-01T07:47:47;100743.38;;;32.66;59.62
74474;BME280;62922;-6.168;106.796;2023-06-01T07:50:13;100740.53;;;32.66;59.18
74474;BME280;62922;-6.168;106.796;2023-06-01T07:52:39;100744.19;;;32.66;59.01
74474;BME280;62922;-6.168;106.796;2023-06-01T07:55:06;100737.72;;;32.66;59.56
74474;BME280;62922;-6.168;106.796;2023-06-01T07:57:35;100746.66;;;32.68;59.27
74474;BME280;62922;-6.168;106.796;2023-06-01T08:00:01;100742.69;;;32.69;58.88
74474;BME280;62922;-6.168;106.796;2023-06-01T08:02:29;100737.38;;;32.67;58.75
74474;BME280;62922;-6.168;106.796;2023-06-01T08:04:55;100732.19;;;32.69;59.11
74474;BME280;62922;-6.168;106.796;2023-06-01T08:07:22;100730.19;;;32.70;58.99
74474;BME280;62922;-6.168;106.796;2023-06-01T08:09:48;100731.50;;;32.72;59.05
74474;BME280;62922;-6.168;106.796;2023-06-01T08:12:15;100730.31;;;32.73;59.30
74474;BME280;62922;-6.168;106.796;2023-06-01T08:14:41;100726.34;;;32.74;58.55
74474;BME280;62922;-6.168;106.796;2023-06-01T08:17:10;100722.69;;;32.74;58.82
74474;BME280;62922;-6.168;106.796;2023-06-01T08:19:37;100719.50;;;32.75;58.75
74474;BME280;62922;-6.168;106.796;2023-06-01T08:22:05;100721.50;;;32.75;58.16
74474;BME280;62922;-6.168;106.796;2023-06-01T08:24:31;100717.88;;;32.74;58.09
74474;BME280;62922;-6.168;106.796;2023-06-01T08:26:59;100714.69;;;32.76;58.57
74474;BME280;62922;-6.168;106.796;2023-06-01T08:29:25;100723.16;;;32.76;58.00
74474;BME280;62922;-6.168;106.796;2023-06-01T08:31:51;100719.16;;;32.77;58.46
74474;BME280;62922;-6.168;106.796;2023-06-01T08:34:17;100729.28;;;32.78;57.96
74474;BME280;62922;-6.168;106.796;2023-06-01T08:36:43;100728.13;;;32.79;58.01
74474;BME280;62922;-6.168;106.796;2023-06-01T08:39:19;100731.41;;;32.81;58.39
74474;BME280;62922;-6.168;106.796;2023-06-01T08:41:53;100727.75;;;32.80;57.74
74474;BME280;62922;-6.168;106.796;2023-06-01T08:44:22;100728.59;;;32.81;58.24
74474;BME280;62922;-6.168;106.796;2023-06-01T08:46:50;100731.41;;;32.81;58.30
74474;BME280;62922;-6.168;106.796;2023-06-01T08:49:16;100734.25;;;32.81;58.16
74474;BME280;62922;-6.168;106.796;2023-06-01T08:51:42;100722.94;;;32.81;58.17
74474;BME280;62922;-6.168;106.796;2023-06-01T08:54:08;100728.59;;;32.81;58.08
74474;BME280;62922;-6.168;106.796;2023-06-01T08:56:35;100737.91;;;32.81;58.29
74474;BME280;62922;-6.168;106.796;2023-06-01T08:59:01;100739.53;;;32.82;57.76
74474;BME280;62922;-6.168;106.796;2023-06-01T09:01:28;100737.56;;;32.83;58.08
74474;BME280;62922;-6.168;106.796;2023-06-01T09:03:59;100744.03;;;32.83;57.58
74474;BME280;62922;-6.168;106.796;2023-06-01T09:06:25;100738.75;;;32.82;57.70
74474;BME280;62922;-6.168;106.796;2023-06-01T09:08:51;100750.84;;;32.82;57.49
74474;BME280;62922;-6.168;106.796;2023-06-01T09:11:17;100744.72;;;32.80;57.58
74474;BME280;62922;-6.168;106.796;2023-06-01T09:13:44;100746.38;;;32.81;57.24
74474;BME280;62922;-6.168;106.796;2023-06-01T09:16:10;100746.75;;;32.80;57.07
74474;BME280;62922;-6.168;106.796;2023-06-01T09:18:41;100747.53;;;32.80;57.52
74474;BME280;62922;-6.168;106.796;2023-06-01T09:21:16;100756.84;;;32.81;57.72
74474;BME280;62922;-6.168;106.796;2023-06-01T09:23:42;100752.88;;;32.82;57.90
74474;BME280;62922;-6.168;106.796;2023-06-01T09:26:09;100751.19;;;32.81;57.86
74474;BME280;62922;-6.168;106.796;2023-06-01T09:34:08;100760.50;;;32.81;57.99
74474;BME280;62922;-6.168;106.796;2023-06-01T09:36:36;100757.69;;;32.81;57.36
74474;BME280;62922;-6.168;106.796;2023-06-01T09:39:05;100763.34;;;32.81;57.99
74474;BME280;62922;-6.168;106.796;2023-06-01T09:44:22;100771.81;;;32.81;57.92
74474;BME280;62922;-6.168;106.796;2023-06-01T09:46:50;100774.66;;;32.81;57.96
74474;BME280;62922;-6.168;106.796;2023-06-01T09:49:18;100778.31;;;32.82;57.46
74474;BME280;62922;-6.168;106.796;2023-06-01T09:51:45;100776.63;;;32.81;58.05
74474;BME280;62922;-6.168;106.796;2023-06-01T09:54:36;100785.94;;;32.81;57.99
74474;BME280;62922;-6.168;106.796;2023-06-01T09:56:58;100791.59;;;32.81;57.44
74474;BME280;62922;-6.168;106.796;2023-06-01T09:59:28;100794.78;;;32.80;57.39
74474;BME280;62922;-6.168;106.796;2023-06-01T10:01:55;100800.09;;;32.81;57.88
74474;BME280;62922;-6.168;106.796;2023-06-01T10:04:22;100806.56;;;32.82;58.12
74474;BME280;62922;-6.168;106.796;2023-06-01T10:06:48;100805.75;;;32.81;58.05
74474;BME280;62922;-6.168;106.796;2023-06-01T10:09:17;100804.06;;;32.80;57.25
74474;BME280;62922;-6.168;106.796;2023-06-01T10:11:46;100804.91;;;32.81;57.47
74474;BME280;62922;-6.168;106.796;2023-06-01T10:14:13;100806.56;;;32.82;57.67
74474;BME280;62922;-6.168;106.796;2023-06-01T10:16:40;100802.06;;;32.81;58.11
74474;BME280;62922;-6.168;106.796;2023-06-01T10:19:09;100811.75;;;32.80;57.88
74474;BME280;62922;-6.168;106.796;2023-06-01T10:21:38;100802.44;;;32.79;57.96
74474;BME280;62922;-6.168;106.796;2023-06-01T10:24:05;100804.41;;;32.79;57.58
74474;BME280;62922;-6.168;106.796;2023-06-01T10:26:36;100817.41;;;32.80;57.84
74474;BME280;62922;-6.168;106.796;2023-06-01T10:29:02;100825.88;;;32.80;58.13
74474;BME280;62922;-6.168;106.796;2023-06-01T10:33:57;100836.34;;;32.79;57.74
74474;BME280;62922;-6.168;106.796;2023-06-01T10:36:23;100833.50;;;32.79;58.12
74474;BME280;62922;-6.168;106.796;2023-06-01T10:39:20;100831.84;;;32.78;57.75
74474;BME280;62922;-6.168;106.796;2023-06-01T10:41:37;100833.88;;;32.78;58.11
74474;BME280;62922;-6.168;106.796;2023-06-01T10:44:03;100833.03;;;32.77;57.74
74474;BME280;62922;-6.168;106.796;2023-06-01T10:48:56;100813.06;;;32.62;57.65
74474;BME280;62922;-6.168;106.796;2023-06-01T10:51:23;100846.31;;;32.77;58.09
74474;BME280;62922;-6.168;106.796;2023-06-01T10:53:50;100855.63;;;32.77;58.21
74474;BME280;62922;-6.168;106.796;2023-06-01T10:58:42;100861.66;;;32.76;58.02
74474;BME280;62922;-6.168;106.796;2023-06-01T11:01:08;100862.00;;;32.74;57.48
74474;BME280;62922;-6.168;106.796;2023-06-01T11:03:45;100864.00;;;32.74;57.45
74474;BME280;62922;-6.168;106.796;2023-06-01T11:11:07;100873.66;;;32.73;57.55
74474;BME280;62922;-6.168;106.796;2023-06-01T11:13:34;100871.13;;;32.71;58.27
74474;BME280;62922;-6.168;106.796;2023-06-01T11:21:09;100888.09;;;32.71;58.26
74474;BME280;62922;-6.168;106.796;2023-06-01T11:23:37;100896.94;;;32.70;57.94
74474;BME280;62922;-6.168;106.796;2023-06-01T11:26:05;100900.94;;;32.69;58.36
74474;BME280;62922;-6.168;106.796;2023-06-01T11:28:31;100902.56;;;32.70;58.36
74474;BME280;62922;-6.168;106.796;2023-06-01T11:30:58;100909.41;;;32.69;58.38
74474;BME280;62922;-6.168;106.796;2023-06-01T11:33:27;100907.41;;;32.69;57.99
74474;BME280;62922;-6.168;106.796;2023-06-01T11:36:02;100907.75;;;32.68;58.33
74474;BME280;62922;-6.168;106.796;2023-06-01T11:38:35;100917.06;;;32.68;58.11
74474;BME280;62922;-6.168;106.796;2023-06-01T11:41:02;100915.41;;;32.67;58.27
74474;BME280;62922;-6.168;106.796;2023-06-01T11:43:29;100919.03;;;32.68;58.75
74474;BME280;62922;-6.168;106.796;2023-06-01T11:46:05;100923.06;;;32.67;58.18
74474;BME280;62922;-6.168;106.796;2023-06-01T11:48:32;100922.22;;;32.66;58.15
74474;BME280;62922;-6.168;106.796;2023-06-01T11:50:59;100929.84;;;32.66;58.43
74474;BME280;62922;-6.168;106.796;2023-06-01T11:53:26;100936.34;;;32.66;58.13
74474;BME280;62922;-6.168;106.796;2023-06-01T11:55:52;100936.34;;;32.66;58.07
74474;BME280;62922;-6.168;106.796;2023-06-01T11:58:28;100933.53;;;32.66;58.86
74474;BME280;62922;-6.168;106.796;2023-06-01T12:00:54;100940.00;;;32.67;58.76
74474;BME280;62922;-6.168;106.796;2023-06-01T12:03:21;100947.66;;;32.66;58.51
74474;BME280;62922;-6.168;106.796;2023-06-01T12:05:49;100944.00;;;32.66;58.54
74474;BME280;62922;-6.168;106.796;2023-06-01T12:10:42;100942.00;;;32.66;59.28
74474;BME280;62922;-6.168;106.796;2023-06-01T12:13:09;100941.16;;;32.66;59.76
74474;BME280;62922;-6.168;106.796;2023-06-01T12:15:36;100950.81;;;32.65;59.24
74474;BME280;62922;-6.168;106.796;2023-06-01T12:18:03;100962.13;;;32.65;59.57
74474;BME280;62922;-6.168;106.796;2023-06-01T12:20:32;100958.47;;;32.64;59.89
74474;BME280;62922;-6.168;106.796;2023-06-01T12:22:59;100956.47;;;32.65;59.37
74474;BME280;62922;-6.168;106.796;2023-06-01T12:25:26;100966.09;;;32.64;59.62
74474;BME280;62922;-6.168;106.796;2023-06-01T12:28:03;100964.13;;;32.64;60.08
74474;BME280;62922;-6.168;106.796;2023-06-01T12:30:29;100958.47;;;32.64;59.67
74474;BME280;62922;-6.168;106.796;2023-06-01T12:32:55;100966.09;;;32.64;60.30
74474;BME280;62922;-6.168;106.796;2023-06-01T12:35:21;100966.09;;;32.64;60.18
74474;BME280;62922;-6.168;106.796;2023-06-01T12:38:03;100968.94;;;32.64;60.36
74474;BME280;62922;-6.168;106.796;2023-06-01T12:40:29;100967.28;;;32.63;60.46
74474;BME280;62922;-6.168;106.796;2023-06-01T12:42:55;100976.59;;;32.63;60.74
74474;BME280;62922;-6.168;106.796;2023-06-01T12:45:21;100970.47;;;32.61;60.54
74474;BME280;62922;-6.168;106.796;2023-06-01T12:47:47;100968.47;;;32.62;61.16
74474;BME280;62922;-6.168;106.796;2023-06-01T12:50:13;100972.44;;;32.61;61.11
74474;BME280;62922;-6.168;106.796;2023-06-01T12:52:40;100969.63;;;32.61;60.99
74474;BME280;62922;-6.168;106.796;2023-06-01T12:55:07;100978.94;;;32.61;60.84
74474;BME280;62922;-6.168;106.796;2023-06-01T12:57:34;100987.75;;;32.60;61.54
74474;BME280;62922;-6.168;106.796;2023-06-01T13:00:00;100993.41;;;32.60;60.94
74474;BME280;62922;-6.168;106.796;2023-06-01T13:02:29;101000.69;;;32.61;61.10
74474;BME280;62922;-6.168;106.796;2023-06-01T13:04:55;101001.06;;;32.59;61.62
74474;BME280;62922;-6.168;106.796;2023-06-01T13:07:23;101007.53;;;32.60;61.16
74474;BME280;62922;-6.168;106.796;2023-06-01T13:09:49;101008.69;;;32.58;61.72
74474;BME280;62922;-6.168;106.796;2023-06-01T13:12:15;101011.50;;;32.58;61.27
74474;BME280;62922;-6.168;106.796;2023-06-01T13:14:40;101011.50;;;32.58;61.31